Campina da Lagoa, Brazil
Current Conditions -  °F | °C
As of 11:00 AM on Saturday 01 Nov 2014 (Local Time) from SBCA Reporting Station
Broken Clouds Broken Clouds  
Wind Chill: 77°   Ceiling: 10000
Heat Index: 79°   Visibility: 6mi
Dew Point: 64°   Wind: 23mph
Humidity: 65%   Direction: 20°NNE
Pressure: 30"   Gusts: NA
Location:  24.59°S, 52.8°W
Report Text: SBCA 011300Z 02020KT 9999 FEW020 BKN100 25/18 Q1016
Loading
Personal Weather Stations






























Interactive Weather Map
Tropical Storm Tracking
New forecast layout! Learn more

10-Day Weather Forecast

Advertisements
Track Severe Weather on mobile